Time;durP1;ratioP1;P1;durP2;ratioP2;P2;SDS_P1;SDS_P2;PMS_P1;PMS_P2;Temp;Humidity;BMP_temperature;BMP_pressure;BME280_temperature;BME280_humidity;BME280_pressure;Samples;Min_cycle;Max_cycle;Signal;HPM_P1;HPM_P2
2022/06/03 00:00:06;;;;;;;2.27;2.07;;;;;;;;;;5060531;28;20482;-74
2022/06/03 00:03:02;;;;;;;3.10;2.47;;;;;;;;;;5071370;28;20845;-75
2022/06/03 00:06:02;;;;;;;2.80;2.33;;;;;;;;;;5081984;28;20457;-74
2022/06/03 00:08:37;;;;;;;2.40;2.00;;;;;;;;;;5071918;28;20453;-76
2022/06/03 00:11:25;;;;;;;2.50;2.30;;;;;;;;;;5055021;28;20454;-75
2022/06/03 00:14:01;;;;;;;2.70;2.47;;;;;;;;;;5068733;28;20453;-75
2022/06/03 00:16:33;;;;;;;4.00;2.83;;;;;;;;;;5078810;28;20451;-75
2022/06/03 00:19:15;;;;;;;2.93;2.53;;;;;;;;;;5073224;28;20533;-75
2022/06/03 00:21:52;;;;;;;1.97;1.83;;;;;;;;;;5070673;28;20940;-74
2022/06/03 00:24:26;;;;;;;2.30;2.00;;;;;;;;;;5074751;28;20472;-74
2022/06/03 00:27:04;;;;;;;2.93;2.20;;;;;;;;;;5073861;28;20437;-76
2022/06/03 00:29:50;;;;;;;3.80;2.30;;;;;;;;;;5077563;28;20781;-76
2022/06/03 00:32:38;;;;;;;2.27;2.07;;;;;;;;;;5058760;28;20535;-75
2022/06/03 00:35:29;;;;;;;3.57;2.20;;;;;;;;;;5065502;28;20458;-75
2022/06/03 00:38:00;;;;;;;2.30;2.10;;;;;;;;;;5054642;28;20468;-75
2022/06/03 00:40:33;;;;;;;3.00;2.30;;;;;;;;;;5071372;28;20445;-74
2022/06/03 00:43:27;;;;;;;2.47;2.17;;;;;;;;;;5066389;28;20471;-75
2022/06/03 00:46:10;;;;;;;2.00;1.80;;;;;;;;;;5080688;28;20481;-74
2022/06/03 00:48:43;;;;;;;1.90;1.73;;;;;;;;;;5070644;28;20447;-74
2022/06/03 00:51:19;;;;;;;2.37;2.13;;;;;;;;;;5075172;28;20445;-75
2022/06/03 00:53:59;;;;;;;2.20;2.00;;;;;;;;;;5081840;28;20442;-74
2022/06/03 00:56:34;;;;;;;2.73;2.30;;;;;;;;;;5075482;28;20440;-76
2022/06/03 00:59:05;;;;;;;2.00;1.80;;;;;;;;;;5086897;28;20731;-75
2022/06/03 01:01:35;;;;;;;2.77;2.43;;;;;;;;;;5078258;28;21110;-75
2022/06/03 01:04:13;;;;;;;2.73;2.53;;;;;;;;;;5075258;28;20901;-75
2022/06/03 01:06:47;;;;;;;2.60;2.40;;;;;;;;;;5079378;28;20445;-75
2022/06/03 01:09:23;;;;;;;2.60;2.30;;;;;;;;;;5083483;28;20468;-75
2022/06/03 01:12:00;;;;;;;2.87;2.60;;;;;;;;;;5074347;28;20456;-75
2022/06/03 01:14:33;;;;;;;3.17;2.30;;;;;;;;;;5084011;28;20501;-76
2022/06/03 01:17:07;;;;;;;2.60;2.40;;;;;;;;;;5086789;28;21025;-75
2022/06/03 01:19:47;;;;;;;3.00;2.70;;;;;;;;;;5065174;28;20440;-75
2022/06/03 01:22:27;;;;;;;3.17;2.60;;;;;;;;;;5074971;28;20451;-76
2022/06/03 01:25:10;;;;;;;2.63;2.37;;;;;;;;;;5073732;28;20943;-75
2022/06/03 01:27:48;;;;;;;3.23;2.20;;;;;;;;;;5075351;28;20448;-75
2022/06/03 01:30:20;;;;;;;3.17;2.13;;;;;;;;;;5077339;28;20564;-75
2022/06/03 01:33:02;;;;;;;3.30;2.67;;;;;;;;;;5082727;28;20477;-75
2022/06/03 01:35:51;;;;;;;2.50;2.30;;;;;;;;;;5067810;28;20449;-74
2022/06/03 01:38:25;;;;;;;5.77;2.20;;;;;;;;;;5073186;28;20445;-75
2022/06/03 01:41:00;;;;;;;2.70;2.47;;;;;;;;;;5074061;28;20455;-75
2022/06/03 01:43:52;;;;;;;2.73;2.53;;;;;;;;;;5060971;28;20464;-75
2022/06/03 01:46:26;;;;;;;4.40;1.90;;;;;;;;;;5082662;28;20453;-75
2022/06/03 01:49:16;;;;;;;2.80;2.37;;;;;;;;;;5079534;28;20563;-75
2022/06/03 01:52:07;;;;;;;2.67;2.47;;;;;;;;;;5064978;28;20480;-74
2022/06/03 01:54:42;;;;;;;2.87;2.63;;;;;;;;;;5065984;28;20460;-75
2022/06/03 01:57:24;;;;;;;2.43;2.23;;;;;;;;;;5085620;28;20443;-75
2022/06/03 02:00:22;;;;;;;3.30;2.63;;;;;;;;;;5074120;28;20457;-75
2022/06/03 02:03:13;;;;;;;3.10;2.80;;;;;;;;;;5009444;28;20525;-75
2022/06/03 02:05:57;;;;;;;3.33;2.23;;;;;;;;;;5061582;28;20460;-76
2022/06/03 02:08:39;;;;;;;3.63;3.07;;;;;;;;;;5080346;28;20452;-75
2022/06/03 02:11:28;;;;;;;3.27;2.47;;;;;;;;;;5066068;28;20449;-75
2022/06/03 02:14:09;;;;;;;3.23;2.93;;;;;;;;;;5076415;28;20807;-75
2022/06/03 02:16:55;;;;;;;2.67;2.47;;;;;;;;;;5074081;28;20447;-75
2022/06/03 02:19:33;;;;;;;3.70;2.50;;;;;;;;;;5074514;28;20455;-75
2022/06/03 02:22:20;;;;;;;2.50;2.30;;;;;;;;;;5077948;28;20445;-75
2022/06/03 02:25:01;;;;;;;2.60;2.40;;;;;;;;;;5060943;28;20461;-75
2022/06/03 02:27:43;;;;;;;3.03;2.73;;;;;;;;;;5073818;28;20453;-76
2022/06/03 02:30:27;;;;;;;2.77;2.30;;;;;;;;;;5066976;28;20552;-75
2022/06/03 02:33:09;;;;;;;2.40;2.20;;;;;;;;;;5073176;28;20543;-75
2022/06/03 02:35:52;;;;;;;2.83;2.40;;;;;;;;;;5063975;28;20456;-75
2022/06/03 02:38:37;;;;;;;4.23;3.17;;;;;;;;;;5071065;28;20447;-75
2022/06/03 02:41:34;;;;;;;2.50;2.30;;;;;;;;;;5064701;28;20502;-75
2022/06/03 02:44:19;;;;;;;2.57;2.37;;;;;;;;;;5071812;28;20551;-76
2022/06/03 02:46:56;;;;;;;3.80;2.33;;;;;;;;;;5068932;28;20515;-75
2022/06/03 02:49:44;;;;;;;2.83;2.53;;;;;;;;;;5060477;28;20451;-75
2022/06/03 02:52:32;;;;;;;3.40;2.60;;;;;;;;;;5059530;28;20768;-75
2022/06/03 02:55:18;;;;;;;3.60;2.47;;;;;;;;;;5061101;28;20458;-75
2022/06/03 02:57:57;;;;;;;2.90;2.63;;;;;;;;;;5071899;28;20460;-75
2022/06/03 03:00:36;;;;;;;3.50;2.83;;;;;;;;;;5078634;28;20827;-75
2022/06/03 03:03:10;;;;;;;2.60;2.40;;;;;;;;;;5072193;28;20492;-75
2022/06/03 03:05:45;;;;;;;2.90;2.70;;;;;;;;;;5072804;28;20475;-75
2022/06/03 03:08:34;;;;;;;3.50;2.70;;;;;;;;;;5072147;28;20490;-75
2022/06/03 03:11:19;;;;;;;4.10;2.60;;;;;;;;;;5072039;28;20464;-75
2022/06/03 03:14:00;;;;;;;3.20;2.57;;;;;;;;;;5072097;28;20466;-75
2022/06/03 03:16:35;;;;;;;3.07;2.80;;;;;;;;;;5075301;28;20448;-75
2022/06/03 03:19:17;;;;;;;2.50;2.30;;;;;;;;;;5071850;28;20764;-75
2022/06/03 03:22:03;;;;;;;3.20;2.30;;;;;;;;;;5072052;28;20790;-74
2022/06/03 03:24:50;;;;;;;2.57;2.37;;;;;;;;;;5072404;28;20487;-74
2022/06/03 03:27:27;;;;;;;2.97;2.77;;;;;;;;;;5046675;28;20454;-77
2022/06/03 03:30:05;;;;;;;2.83;2.53;;;;;;;;;;5071759;28;20460;-76
2022/06/03 03:32:46;;;;;;;2.90;2.70;;;;;;;;;;5072115;28;20564;-75
2022/06/03 03:35:20;;;;;;;4.60;2.30;;;;;;;;;;5071622;28;20452;-74
2022/06/03 03:37:57;;;;;;;2.80;2.47;;;;;;;;;;5071392;28;20448;-74
2022/06/03 03:40:51;;;;;;;2.73;2.43;;;;;;;;;;5073906;28;20447;-74
2022/06/03 03:43:33;;;;;;;2.37;2.17;;;;;;;;;;5071236;28;20442;-80
2022/06/03 03:46:23;;;;;;;2.63;2.43;;;;;;;;;;5071410;28;20445;-78
2022/06/03 03:49:15;;;;;;;3.20;2.70;;;;;;;;;;5072607;28;20765;-81
2022/06/03 03:51:53;;;;;;;2.70;2.50;;;;;;;;;;5051788;28;20468;-74
2022/06/03 03:54:40;;;;;;;3.20;2.47;;;;;;;;;;5072853;28;20447;-80
2022/06/03 03:57:28;;;;;;;2.90;2.30;;;;;;;;;;5072177;28;20456;-79
2022/06/03 04:00:05;;;;;;;4.07;2.27;;;;;;;;;;5065859;28;20528;-76
2022/06/03 04:03:03;;;;;;;2.70;2.50;;;;;;;;;;5074488;28;20968;-72
2022/06/03 04:05:50;;;;;;;2.90;2.70;;;;;;;;;;5066451;28;20483;-75
2022/06/03 04:08:38;;;;;;;5.10;3.10;;;;;;;;;;5071734;28;20448;-77
2022/06/03 04:11:13;;;;;;;3.33;2.77;;;;;;;;;;5045122;28;20452;-77
2022/06/03 04:13:58;;;;;;;3.37;3.00;;;;;;;;;;5071808;28;20462;-79
2022/06/03 04:16:42;;;;;;;4.60;3.03;;;;;;;;;;5071670;28;20448;-75
2022/06/03 04:19:28;;;;;;;3.80;3.43;;;;;;;;;;5071980;28;20802;-75
2022/06/03 04:22:05;;;;;;;2.70;2.50;;;;;;;;;;5069200;28;20456;-72
2022/06/03 04:24:52;;;;;;;3.50;3.20;;;;;;;;;;5074261;28;20583;-72
2022/06/03 04:27:31;;;;;;;3.20;2.63;;;;;;;;;;5071028;28;20448;-72
2022/06/03 04:30:16;;;;;;;4.20;3.27;;;;;;;;;;5070469;28;20527;-72
2022/06/03 04:33:10;;;;;;;4.00;3.43;;;;;;;;;;5069624;28;20503;-72
2022/06/03 04:35:55;;;;;;;4.13;3.60;;;;;;;;;;5061207;28;20437;-72
2022/06/03 04:41:34;;;;;;;3.93;3.10;;;;;;;;;;5088358;28;20510;-73
2022/06/03 04:44:30;;;;;;;3.77;2.90;;;;;;;;;;5087789;28;20674;-72
2022/06/03 04:47:15;;;;;;;5.30;3.20;;;;;;;;;;5087864;28;20795;-73
2022/06/03 04:50:00;;;;;;;4.33;3.23;;;;;;;;;;5088123;28;20455;-72
2022/06/03 04:52:57;;;;;;;2.73;2.37;;;;;;;;;;5087659;28;20449;-71
2022/06/03 04:55:40;;;;;;;3.80;3.10;;;;;;;;;;5025884;28;20470;-72
2022/06/03 04:58:37;;;;;;;2.80;2.60;;;;;;;;;;5080688;28;20923;-71
2022/06/03 05:01:22;;;;;;;4.13;2.93;;;;;;;;;;5087751;28;20481;-72
2022/06/03 05:04:08;;;;;;;3.43;3.10;;;;;;;;;;5076439;28;20528;-72
2022/06/03 05:06:50;;;;;;;2.97;2.67;;;;;;;;;;5088057;28;20445;-72
2022/06/03 05:09:38;;;;;;;3.00;2.80;;;;;;;;;;5088210;28;20462;-72
2022/06/03 05:12:26;;;;;;;2.87;2.67;;;;;;;;;;5077908;28;20459;-71
2022/06/03 05:15:08;;;;;;;2.90;2.63;;;;;;;;;;5087647;28;20460;-71
2022/06/03 05:17:53;;;;;;;3.13;2.50;;;;;;;;;;5073852;28;20819;-71
2022/06/03 05:20:30;;;;;;;4.47;3.43;;;;;;;;;;5087845;28;20498;-72
2022/06/03 05:23:07;;;;;;;3.63;3.30;;;;;;;;;;5087068;28;20458;-72
2022/06/03 05:25:52;;;;;;;3.57;3.20;;;;;;;;;;5087532;28;20932;-73
2022/06/03 05:28:32;;;;;;;3.50;3.10;;;;;;;;;;5087786;28;20868;-72
2022/06/03 05:31:24;;;;;;;3.27;2.97;;;;;;;;;;5087235;28;20929;-72
2022/06/03 05:34:04;;;;;;;4.00;2.80;;;;;;;;;;5086321;28;21036;-72
2022/06/03 05:36:58;;;;;;;2.90;2.70;;;;;;;;;;5087453;28;20459;-72
2022/06/03 05:39:52;;;;;;;4.30;3.23;;;;;;;;;;5087439;28;20495;-71
2022/06/03 05:42:27;;;;;;;2.97;2.77;;;;;;;;;;5087292;28;20523;-72
2022/06/03 05:45:02;;;;;;;3.37;2.93;;;;;;;;;;5086859;28;20493;-72
2022/06/03 05:47:32;;;;;;;4.10;3.70;;;;;;;;;;5087250;28;20886;-71
2022/06/03 05:50:03;;;;;;;3.70;3.37;;;;;;;;;;5086923;28;20924;-71
2022/06/03 05:52:37;;;;;;;3.90;3.20;;;;;;;;;;5074257;28;20470;-71
2022/06/03 05:55:32;;;;;;;3.77;3.10;;;;;;;;;;5073149;28;20447;-72
2022/06/03 05:58:18;;;;;;;6.57;3.57;;;;;;;;;;5073233;28;20441;-72
2022/06/03 06:00:50;;;;;;;3.57;3.27;;;;;;;;;;5073152;28;20479;-72
2022/06/03 06:03:22;;;;;;;3.80;3.50;;;;;;;;;;5073072;28;20453;-72
2022/06/03 06:05:52;;;;;;;4.20;3.13;;;;;;;;;;5073078;28;20437;-72
2022/06/03 06:08:27;;;;;;;4.03;3.63;;;;;;;;;;5073452;28;20458;-72
2022/06/03 06:10:58;;;;;;;3.40;3.10;;;;;;;;;;5073016;28;20800;-72
2022/06/03 06:13:45;;;;;;;3.37;2.90;;;;;;;;;;5072768;28;20446;-72
2022/06/03 06:16:16;;;;;;;4.63;3.70;;;;;;;;;;5047775;28;20823;-72
2022/06/03 06:18:50;;;;;;;3.77;3.17;;;;;;;;;;5072502;28;20937;-72
2022/06/03 06:21:28;;;;;;;6.90;6.20;;;;;;;;;;5073294;28;20492;-72
2022/06/03 06:24:04;;;;;;;6.70;4.70;;;;;;;;;;5072695;28;20450;-71
2022/06/03 06:26:45;;;;;;;4.00;3.37;;;;;;;;;;5072962;28;20766;-71
2022/06/03 06:29:20;;;;;;;3.97;3.37;;;;;;;;;;5073047;28;20537;-71
2022/06/03 06:32:11;;;;;;;3.73;3.43;;;;;;;;;;5072252;28;20446;-72
2022/06/03 06:34:51;;;;;;;3.10;2.80;;;;;;;;;;5073187;28;20864;-72
2022/06/03 06:37:31;;;;;;;9.93;3.50;;;;;;;;;;5073177;28;20445;-72
2022/06/03 06:40:10;;;;;;;3.73;2.90;;;;;;;;;;5071669;28;20493;-73
2022/06/03 06:42:46;;;;;;;3.53;3.23;;;;;;;;;;5072389;28;20711;-72
2022/06/03 06:45:20;;;;;;;4.17;3.30;;;;;;;;;;5072929;28;20463;-72
2022/06/03 06:47:50;;;;;;;3.70;2.90;;;;;;;;;;5072173;28;20452;-72
2022/06/03 06:50:20;;;;;;;3.77;3.47;;;;;;;;;;5072452;28;20945;-72
2022/06/03 06:53:02;;;;;;;4.40;3.00;;;;;;;;;;5071420;28;20488;-72
2022/06/03 06:55:42;;;;;;;4.97;3.93;;;;;;;;;;5070322;28;20462;-72
2022/06/03 06:58:21;;;;;;;3.80;3.50;;;;;;;;;;5072784;28;20795;-72
2022/06/03 07:00:50;;;;;;;3.60;3.30;;;;;;;;;;5071983;28;20473;-72
2022/06/03 07:03:22;;;;;;;5.07;3.90;;;26.60;1.00;;;;;;5070691;28;20445;-72
2022/06/03 07:05:55;;;;;;;3.47;2.77;;;20.00;99.90;;;;;;5071772;28;20799;-72
2022/06/03 07:08:26;;;;;;;4.27;3.10;;;19.90;99.90;;;;;;5072223;28;20940;-72
2022/06/03 07:11:00;;;;;;;3.90;2.83;;;20.00;99.90;;;;;;5071729;28;20461;-72
2022/06/03 07:13:33;;;;;;;3.13;2.93;;;20.10;99.90;;;;;;5071924;28;20444;-72
2022/06/03 07:16:10;;;;;;;5.60;2.87;;;20.20;99.90;;;;;;5071903;28;20525;-72
2022/06/03 07:21:57;;;;;;;3.50;3.20;;;20.40;99.90;;;;;;5071466;28;20567;-72
2022/06/03 07:24:40;;;;;;;2.97;2.70;;;20.40;99.90;;;;;;5072277;28;20459;-72
2022/06/03 07:27:12;;;;;;;3.37;3.13;;;20.60;94.90;;;;;;5072165;28;20437;-72
2022/06/03 07:29:43;;;;;;;3.57;3.27;;;20.70;23.00;;;;;;5072146;28;20805;-72
2022/06/03 07:32:14;;;;;;;3.83;3.27;;;20.70;16.70;;;;;;5071845;28;20442;-72
2022/06/03 07:34:46;;;;;;;6.10;3.53;;;20.90;1.00;;;;;;5071622;28;20457;-72
2022/06/03 07:37:20;;;;;;;3.47;2.90;;;21.00;1.00;;;;;;5071877;28;20438;-72
2022/06/03 07:39:52;;;;;;;2.93;2.63;;;21.30;1.00;;;;;;5070776;28;20488;-73
2022/06/03 07:42:30;;;;;;;3.50;3.00;;;21.30;1.00;;;;;;5071133;28;20450;-72
2022/06/03 07:45:12;;;;;;;3.53;3.03;;;21.50;1.00;;;;;;5071206;28;20921;-69
2022/06/03 07:47:39;;;;;;;3.17;2.87;;;21.70;1.00;;;;;;5071774;28;20484;-71
2022/06/03 07:50:12;;;;;;;5.33;3.03;;;21.90;1.00;;;;;;5071242;28;20538;-72
2022/06/03 07:52:43;;;;;;;2.50;2.30;;;22.10;1.00;;;;;;5071040;28;20947;-71
2022/06/03 07:55:14;;;;;;;3.67;2.80;;;22.10;1.00;;;;;;5072063;28;20768;-71
2022/06/03 07:57:49;;;;;;;3.53;3.20;;;22.10;1.00;;;;;;5071776;28;20473;-71
2022/06/03 08:00:18;;;;;;;4.17;2.90;;;22.10;1.00;;;;;;5071497;28;20472;-71
2022/06/03 08:02:45;;;;;;;3.57;3.07;;;22.10;1.00;;;;;;5069992;28;20789;-72
2022/06/03 08:05:15;;;;;;;2.50;2.30;;;22.00;1.00;;;;;;5071149;28;20442;-72
2022/06/03 08:13:17;;;;;;;2.70;2.40;;;22.20;1.00;;;;;;5062935;28;20502;-72
2022/06/03 08:15:54;;;;;;;3.30;2.13;;;22.20;1.00;;;;;;5070343;28;20453;-71
2022/06/03 08:18:23;;;;;;;3.17;2.87;;;22.30;1.00;;;;;;5070976;28;20545;-71
2022/06/03 08:20:54;;;;;;;3.90;2.20;;;22.20;1.00;;;;;;5070255;28;20485;-71
2022/06/03 08:23:23;;;;;;;2.40;2.20;;;22.30;1.00;;;;;;5070675;28;20522;-71
2022/06/03 08:25:53;;;;;;;4.40;2.20;;;22.50;1.00;;;;;;5070599;28;20490;-71
2022/06/03 08:28:26;;;;;;;2.60;2.40;;;22.60;1.00;;;;;;5071004;28;20457;-71
2022/06/03 08:30:55;;;;;;;3.40;2.30;;;22.80;1.00;;;;;;5070546;28;20567;-72
2022/06/03 08:33:30;;;;;;;2.77;2.57;;;22.80;1.00;;;;;;5070432;28;20490;-72
2022/06/03 08:35:57;;;;;;;2.77;2.53;;;22.90;1.00;;;;;;5070437;28;20447;-72
2022/06/03 08:38:29;;;;;;;2.50;2.30;;;23.00;1.00;;;;;;5070946;28;20978;-72
2022/06/03 08:41:08;;;;;;;2.70;2.50;;;23.10;1.00;;;;;;5072367;28;20500;-72
2022/06/03 08:44:02;;;;;;;2.90;2.27;;;23.20;99.90;;;;;;5073698;28;20445;-72
2022/06/03 08:46:35;;;;;;;3.43;3.10;;;23.30;99.90;;;;;;5073954;28;20453;-71
2022/06/03 08:49:07;;;;;;;4.10;2.50;;;23.30;99.90;;;;;;5073502;28;20833;-71
2022/06/03 08:51:40;;;;;;;2.80;2.60;;;23.40;99.90;;;;;;5073047;28;20452;-72
2022/06/03 08:54:17;;;;;;;2.50;2.30;;;23.50;99.90;;;;;;5073058;28;20453;-71
2022/06/03 08:56:47;;;;;;;2.83;2.20;;;23.70;99.90;;;;;;5071038;28;20434;-71
2022/06/03 08:59:19;;;;;;;3.30;2.70;;;23.80;99.90;;;;;;5070645;28;20945;-72
2022/06/03 09:01:51;;;;;;;3.00;2.70;;;23.90;99.90;;;;;;5070069;28;20480;-72
2022/06/03 09:04:25;;;;;;;2.73;2.53;;;24.00;99.90;;;;;;5070581;28;20794;-71
2022/06/03 09:07:00;;;;;;;3.40;3.10;;;24.10;99.90;;;;;;5070509;28;20443;-72
2022/06/03 09:09:33;;;;;;;2.60;2.40;;;24.30;99.90;;;;;;5070727;28;20584;-71
2022/06/03 09:12:08;;;;;;;2.97;2.77;;;24.40;99.90;;;;;;5069562;28;20483;-71
2022/06/03 09:14:36;;;;;;;2.43;2.23;;;24.50;99.90;;;;;;5070691;28;20544;-72
2022/06/03 09:17:08;;;;;;;3.33;3.03;;;24.70;99.90;;;;;;5070099;28;20454;-72
2022/06/03 09:19:40;;;;;;;2.50;2.30;;;24.90;99.90;;;;;;5070537;28;20554;-72
2022/06/03 09:22:13;;;;;;;2.63;2.43;;;24.80;99.90;;;;;;5070062;28;20485;-72
2022/06/03 09:24:44;;;;;;;2.93;2.07;;;24.70;99.90;;;;;;5070781;28;20458;-71
2022/06/03 09:27:13;;;;;;;2.60;2.40;;;24.60;99.90;;;;;;5072559;28;20943;-72
2022/06/03 09:29:46;;;;;;;2.90;2.57;;;;;;;;;;5074254;28;20468;-72
2022/06/03 09:32:14;;;;;;;1.93;1.80;;;;;;;;;;5073531;28;20449;-72
2022/06/03 09:34:42;;;;;;;2.87;2.67;;;;;;;;;;5073739;28;20454;-72
2022/06/03 09:37:11;;;;;;;2.53;2.33;;;;;;;;;;5074116;28;20556;-71
2022/06/03 09:39:38;;;;;;;3.60;3.30;;;;;;;;;;5073425;28;20976;-71
2022/06/03 09:42:06;;;;;;;3.30;2.97;;;;;;;;;;5072836;28;20581;-72
2022/06/03 09:44:34;;;;;;;2.40;2.20;;;;;;;;;;5073936;28;20557;-72
2022/06/03 09:47:06;;;;;;;2.40;2.20;;;;;;;;;;5073332;28;20532;-72
2022/06/03 09:49:34;;;;;;;2.30;2.07;;;;;;;;;;5073732;28;20454;-71
2022/06/03 09:52:03;;;;;;;2.60;2.40;;;;;;;;;;5072705;28;20932;-72
2022/06/03 09:54:31;;;;;;;3.40;1.90;;;;;;;;;;5073712;28;20449;-72
2022/06/03 09:57:01;;;;;;;2.33;2.13;;;;;;;;;;5073279;28;20452;-72
2022/06/03 09:59:29;;;;;;;2.90;2.70;;;;;;;;;;5073989;28;20445;-72
2022/06/03 10:01:56;;;;;;;3.30;2.20;;;;;;;;;;5072794;28;20891;-72
2022/06/03 10:04:25;;;;;;;2.33;2.13;;;;;;;;;;5073123;28;20454;-72
2022/06/03 10:06:53;;;;;;;2.33;2.03;;;;;;;;;;5073081;28;20878;-72
2022/06/03 10:17:39;;;;;;;3.13;2.80;;;;;;;;;;5073493;28;20497;-70
2022/06/03 10:20:09;;;;;;;2.77;2.57;;;;;;;;;;5073145;28;20445;-71
2022/06/03 10:22:36;;;;;;;2.57;2.37;;;;;;;;;;5072690;28;20564;-71
2022/06/03 10:25:03;;;;;;;2.30;2.10;;;;;;;;;;5072957;28;20455;-72
2022/06/03 10:27:30;;;;;;;2.13;2.03;;;;;;;;;;5073372;28;20534;-71
2022/06/03 10:30:00;;;;;;;2.40;2.20;;;;;;;;;;5072581;28;20468;-72
2022/06/03 10:32:27;;;;;;;3.07;2.80;;;;;;;;;;5072748;28;20514;-71
2022/06/03 10:34:57;;;;;;;2.13;2.03;;;;;;;;;;5072374;28;20452;-71
2022/06/03 10:37:27;;;;;;;2.53;2.33;;;;;;;;;;5073127;28;20834;-71
2022/06/03 10:39:56;;;;;;;2.80;2.30;;;;;;;;;;5071874;28;20488;-71
2022/06/03 10:42:24;;;;;;;2.60;2.40;;;;;;;;;;5072286;28;20983;-71
2022/06/03 10:44:56;;;;;;;2.57;2.37;;;;;;;;;;5072341;28;20806;-71
2022/06/03 10:47:24;;;;;;;2.13;2.00;;;;;;;;;;5072737;28;20473;-71
2022/06/03 10:49:54;;;;;;;2.53;1.80;;;24.70;99.90;;;;;;5072301;28;20455;-72
2022/06/03 11:01:09;;;;;;;3.03;2.27;;;28.40;22.20;;;;;;5072038;28;20448;-72
2022/06/03 11:03:41;;;;;;;2.40;2.20;;;28.10;19.20;;;;;;5072549;28;20449;-73
2022/06/03 11:06:13;;;;;;;2.03;1.60;;;27.90;19.50;;;;;;5072853;28;20444;-72
2022/06/03 11:08:52;;;;;;;2.20;2.00;;;27.90;17.80;;;;;;5072322;28;20445;-72
2022/06/03 11:11:33;;;;;;;3.60;2.30;;;;;;;;;;5071794;28;20449;-72
2022/06/03 11:14:23;;;;;;;2.30;2.07;;;27.80;16.00;;;;;;5071526;28;20799;-72
2022/06/03 11:16:51;;;;;;;1.93;1.83;;;27.50;28.10;;;;;;5071301;28;20603;-71
2022/06/03 11:19:19;;;;;;;2.03;1.93;;;27.50;26.40;;;;;;5071820;28;20459;-71
2022/06/03 11:21:46;;;;;;;2.57;2.37;;;;;;;;;;5070761;28;21075;-71
2022/06/03 11:24:14;;;;;;;2.27;2.17;;;;;;;;;;5072192;28;20536;-71
2022/06/03 11:26:45;;;;;;;2.70;2.50;;;;;;;;;;5072170;28;20457;-72
2022/06/03 11:29:15;;;;;;;2.20;2.10;;;;;;;;;;5072083;28;20453;-72
2022/06/03 11:31:44;;;;;;;2.33;2.10;;;;;;;;;;5071029;28;20539;-72
2022/06/03 11:34:16;;;;;;;2.03;1.93;;;;;;;;;;5072306;28;20445;-71
2022/06/03 11:36:45;;;;;;;2.00;1.90;;;;;;;;;;5071588;28;20872;-72
2022/06/03 11:39:15;;;;;;;6.17;3.00;;;;;;;;;;5071803;28;20487;-71
2022/06/03 11:41:46;;;;;;;2.23;2.13;;;;;;;;;;5071095;28;20505;-73
2022/06/03 11:44:16;;;;;;;2.87;2.67;;;;;;;;;;5072032;28;20441;-72
2022/06/03 11:46:45;;;;;;;3.23;2.70;;;;;;;;;;5071332;28;20442;-72
2022/06/03 11:49:13;;;;;;;3.13;2.30;;;;;;;;;;5071247;28;20524;-72
2022/06/03 11:51:41;;;;;;;2.70;2.50;;;;;;;;;;5058509;28;20544;-71
2022/06/03 11:54:12;;;;;;;2.83;2.57;;;;;;;;;;5071672;28;20541;-71
2022/06/03 11:56:41;;;;;;;2.60;2.40;;;;;;;;;;5071818;28;20452;-71
2022/06/03 11:59:12;;;;;;;2.60;2.40;;;;;;;;;;5071794;28;20448;-72
2022/06/03 12:01:45;;;;;;;2.70;2.50;;;;;;;;;;5071607;28;20469;-72
2022/06/03 12:04:17;;;;;;;2.90;2.70;;;;;;;;;;5071673;28;20440;-71
2022/06/03 12:06:46;;;;;;;3.00;2.50;;;;;;;;;;5071166;28;20452;-72
2022/06/03 12:09:21;;;;;;;3.40;2.40;;;;;;;;;;5071416;28;20536;-73
2022/06/03 12:14:42;;;;;;;2.93;2.73;;;;;;;;;;5061860;28;20495;-72
2022/06/03 12:17:23;;;;;;;3.53;2.40;;;;;;;;;;5071192;28;20954;-71
2022/06/03 12:19:52;;;;;;;2.83;2.57;;;;;;;;;;5070864;28;20441;-71
2022/06/03 12:22:36;;;;;;;2.90;2.37;;;;;;;;;;5070882;28;20513;-72
2022/06/03 12:25:05;;;;;;;2.70;2.50;;;;;;;;;;5070500;28;20947;-72
2022/06/03 12:27:34;;;;;;;2.67;2.50;;;;;;;;;;5071534;28;20449;-71
2022/06/03 12:30:19;;;;;;;2.63;2.43;;;;;;;;;;5070744;28;20460;-71
2022/06/03 12:32:53;;;;;;;2.70;2.50;;;;;;;;;;5070172;28;20506;-70
2022/06/03 12:35:39;;;;;;;2.97;2.70;;;;;;;;;;5071240;28;20433;-71
2022/06/03 12:38:21;;;;;;;2.20;2.03;;;;;;;;;;5070683;28;20453;-71
2022/06/03 12:40:49;;;;;;;3.27;3.07;;;;;;;;;;5037317;28;20538;-72
2022/06/03 12:43:23;;;;;;;2.87;2.63;;;;;;;;;;5070936;28;20491;-72
2022/06/03 12:45:58;;;;;;;3.10;2.70;;;;;;;;;;5070493;28;20451;-72
2022/06/03 12:48:37;;;;;;;3.50;3.20;;;;;;;;;;5070845;28;20831;-71
2022/06/03 12:51:20;;;;;;;3.30;2.70;;;;;;;;;;5070049;28;20472;-72
2022/06/03 12:53:49;;;;;;;3.40;2.77;;;27.40;18.60;;;;;;5070638;28;20445;-73
2022/06/03 12:56:27;;;;;;;3.13;2.57;;;26.30;85.00;;;;;;5070649;28;20460;-72
2022/06/03 12:58:59;;;;;;;5.33;2.80;;;26.10;87.30;;;;;;5070045;28;21012;-72
2022/06/03 13:01:41;;;;;;;3.57;2.80;;;26.10;91.10;;;;;;5071375;28;20445;-71
2022/06/03 13:04:37;;;;;;;2.90;2.70;;;26.10;92.00;;;;;;5075005;28;20511;-71
2022/06/03 13:07:12;;;;;;;2.60;2.40;;;26.20;93.90;;;;;;5074142;28;20921;-71
2022/06/03 13:09:50;;;;;;;3.20;2.70;;;26.00;94.30;;;;;;5074870;28;20457;-71
2022/06/03 13:12:18;;;;;;;3.33;3.03;;;25.90;95.90;;;;;;5073974;28;20452;-71
2022/06/03 13:14:45;;;;;;;2.80;2.60;;;26.20;99.90;;;;;;5074425;28;20445;-72
2022/06/03 13:17:45;;;;;;;2.83;2.63;;;26.40;99.90;;;;;;5074788;28;20459;-72
2022/06/03 13:20:36;;;;;;;2.53;2.30;;;26.50;97.80;;;;;;5074221;28;20986;-71
2022/06/03 13:23:03;;;;;;;2.47;2.27;;;26.40;99.90;;;;;;5073621;28;20473;-72
2022/06/03 13:25:33;;;;;;;2.90;2.70;;;;;;;;;;5074520;28;20528;-72
2022/06/03 13:28:27;;;;;;;3.20;3.00;;;;;;;;;;5074088;28;20433;-72
2022/06/03 13:31:05;;;;;;;3.20;2.90;;;;;;;;;;5073471;28;20464;-71
2022/06/03 13:33:32;;;;;;;4.47;2.97;;;;;;;;;;5074200;28;20461;-71
2022/06/03 13:36:03;;;;;;;2.50;2.30;;;;;;;;;;5073768;28;21070;-72
2022/06/03 13:38:41;;;;;;;3.43;3.23;;;;;;;;;;5074461;28;20440;-72
2022/06/03 13:44:04;;;;;;;3.60;3.10;;;;;;;;;;5073514;28;20440;-71
2022/06/03 13:46:32;;;;;;;2.83;2.63;;;;;;;;;;5074085;28;20464;-71
2022/06/03 13:49:01;;;;;;;3.10;2.90;;;;;;;;;;5073248;28;20452;-72
2022/06/03 13:51:33;;;;;;;3.73;3.43;;;;;;;;;;5073364;28;20956;-71
2022/06/03 13:54:01;;;;;;;3.53;2.67;;;;;;;;;;5073196;28;20449;-71
2022/06/03 13:56:29;;;;;;;3.43;3.13;;;;;;;;;;5073547;28;20489;-71
2022/06/03 13:58:57;;;;;;;3.53;3.23;;;;;;;;;;5073471;28;20468;-71
2022/06/03 14:01:26;;;;;;;3.47;3.17;;;;;;;;;;5073498;28;20949;-71
2022/06/03 14:03:56;;;;;;;3.10;2.80;;;;;;;;;;5072951;28;20511;-72
2022/06/03 14:06:25;;;;;;;3.03;2.83;;;;;;;;;;5073826;28;20449;-71
2022/06/03 14:08:58;;;;;;;3.40;3.10;;;;;;;;;;5073068;28;20484;-71
2022/06/03 14:11:29;;;;;;;3.30;3.10;;;;;;;;;;5073079;28;20464;-71
2022/06/03 14:13:58;;;;;;;2.77;2.57;;;;;;;;;;5072932;28;20799;-71
2022/06/03 14:16:27;;;;;;;3.10;2.80;;;;;;;;;;5073632;28;20483;-71
2022/06/03 14:18:56;;;;;;;2.97;2.77;;;;;;;;;;5072835;28;20820;-72
2022/06/03 14:21:33;;;;;;;2.87;2.57;;;;;;;;;;5073183;28;20854;-72
2022/06/03 14:24:04;;;;;;;3.07;2.87;;;;;;;;;;5059610;28;20912;-72
2022/06/03 14:26:34;;;;;;;3.70;3.40;;;;;;;;;;5073525;28;20473;-72
2022/06/03 14:29:03;;;;;;;2.53;2.27;;;;;;;;;;5073070;28;20800;-72
2022/06/03 14:31:33;;;;;;;3.33;3.03;;;;;;;;;;5072553;28;20450;-72
2022/06/03 14:34:04;;;;;;;3.60;3.00;;;;;;;;;;5072735;28;20445;-71
2022/06/03 14:36:31;;;;;;;4.07;2.77;;;;;;;;;;5073400;28;20451;-72
2022/06/03 14:39:01;;;;;;;3.00;2.70;;;;;;;;;;5072227;28;20452;-71
2022/06/03 14:41:36;;;;;;;3.33;3.03;;;;;;;;;;5072848;28;20446;-72
2022/06/03 14:44:03;;;;;;;5.40;2.80;;;;;;;;;;5072319;28;20572;-72
2022/06/03 14:46:35;;;;;;;3.10;2.80;;;;;;;;;;5073090;28;20446;-72
2022/06/03 14:49:03;;;;;;;3.27;2.63;;;;;;;;;;5072497;28;20783;-71
2022/06/03 14:51:34;;;;;;;2.90;2.70;;;;;;;;;;5072270;28;20460;-72
2022/06/03 14:54:03;;;;;;;3.03;2.83;;;;;;;;;;5072354;28;20471;-71
2022/06/03 14:56:34;;;;;;;3.07;2.77;;;;;;;;;;5073101;28;20532;-71
2022/06/03 14:59:03;;;;;;;3.03;2.73;;;;;;;;;;5071952;28;20529;-72
2022/06/03 15:01:41;;;;;;;2.67;2.47;;;;;;;;;;5072515;28;20445;-71
2022/06/03 15:04:10;;;;;;;3.60;3.20;;;;;;;;;;5072790;28;20465;-72
2022/06/03 15:06:39;;;;;;;2.90;2.60;;;;;;;;;;5072949;28;20453;-71
2022/06/03 15:09:10;;;;;;;3.00;2.80;;;;;;;;;;5071811;28;20539;-71
2022/06/03 15:11:42;;;;;;;2.97;2.67;;;;;;;;;;5072692;28;20453;-71
2022/06/03 15:14:10;;;;;;;3.20;3.00;;;;;;;;;;5072703;28;20447;-71
2022/06/03 15:16:50;;;;;;;2.67;2.47;;;;;;;;;;5072593;28;20810;-71
2022/06/03 15:19:17;;;;;;;3.30;3.00;;;;;;;;;;5072370;28;20445;-71
2022/06/03 15:21:44;;;;;;;2.97;2.77;;;;;;;;;;5071307;28;20447;-70
2022/06/03 15:24:12;;;;;;;2.83;2.63;;;;;;;;;;5071250;28;21002;-72
2022/06/03 15:26:43;;;;;;;2.83;2.60;;;;;;;;;;5072515;28;20452;-72
2022/06/03 15:29:12;;;;;;;3.10;2.90;;;;;;;;;;5072326;28;20441;-72
2022/06/03 15:31:40;;;;;;;3.53;3.00;;;;;;;;;;5071533;28;20928;-73
2022/06/03 15:34:08;;;;;;;4.50;2.97;;;;;;;;;;5071800;28;20450;-71
2022/06/03 15:36:40;;;;;;;2.80;2.60;;;;;;;;;;5071737;28;20979;-72
2022/06/03 15:39:16;;;;;;;3.53;3.23;;;;;;;;;;5072012;28;20448;-71
2022/06/03 15:41:45;;;;;;;3.60;3.30;;;;;;;;;;5070999;28;20495;-73